sensor_id;sensor_type;location;lat;lon;timestamp;P1;durP1;ratioP1;P2;durP2;ratioP2
14048;SDS011;7099;53.922;10.728;2022-10-18T00:02:36;12.83;;;4.07;;
14048;SDS011;7099;53.922;10.728;2022-10-18T00:07:01;6.80;;;3.73;;
14048;SDS011;7099;53.922;10.728;2022-10-18T00:11:26;7.50;;;3.53;;
14048;SDS011;7099;53.922;10.728;2022-10-18T00:15:56;8.97;;;3.83;;
14048;SDS011;7099;53.922;10.728;2022-10-18T00:20:24;15.77;;;3.53;;
14048;SDS011;7099;53.922;10.728;2022-10-18T00:24:50;7.03;;;4.00;;
14048;SDS011;7099;53.922;10.728;2022-10-18T00:38:11;10.67;;;4.90;;
14048;SDS011;7099;53.922;10.728;2022-10-18T00:42:36;8.13;;;4.90;;
14048;SDS011;7099;53.922;10.728;2022-10-18T00:47:03;12.30;;;5.17;;
14048;SDS011;7099;53.922;10.728;2022-10-18T00:51:35;8.20;;;5.70;;
14048;SDS011;7099;53.922;10.728;2022-10-18T00:56:07;12.83;;;6.67;;
14048;SDS011;7099;53.922;10.728;2022-10-18T01:00:33;10.20;;;6.70;;
14048;SDS011;7099;53.922;10.728;2022-10-18T01:05:02;18.93;;;6.33;;
14048;SDS011;7099;53.922;10.728;2022-10-18T01:09:35;14.10;;;7.50;;
14048;SDS011;7099;53.922;10.728;2022-10-18T01:19:20;17.13;;;8.73;;
14048;SDS011;7099;53.922;10.728;2022-10-18T01:24:16;14.93;;;7.47;;
14048;SDS011;7099;53.922;10.728;2022-10-18T01:28:58;21.40;;;8.60;;
14048;SDS011;7099;53.922;10.728;2022-10-18T01:33:58;15.27;;;8.30;;
14048;SDS011;7099;53.922;10.728;2022-10-18T01:38:28;19.50;;;10.00;;
14048;SDS011;7099;53.922;10.728;2022-10-18T01:42:56;19.57;;;9.73;;
14048;SDS011;7099;53.922;10.728;2022-10-18T01:47:21;15.80;;;10.20;;
14048;SDS011;7099;53.922;10.728;2022-10-18T01:51:47;23.17;;;10.60;;
14048;SDS011;7099;53.922;10.728;2022-10-18T02:01:11;15.70;;;10.00;;
14048;SDS011;7099;53.922;10.728;2022-10-18T02:06:17;20.83;;;11.30;;
14048;SDS011;7099;53.922;10.728;2022-10-18T02:10:50;22.20;;;10.50;;
14048;SDS011;7099;53.922;10.728;2022-10-18T02:15:40;23.07;;;11.50;;
14048;SDS011;7099;53.922;10.728;2022-10-18T02:20:11;35.27;;;11.83;;
14048;SDS011;7099;53.922;10.728;2022-10-18T02:24:53;27.23;;;13.07;;
14048;SDS011;7099;53.922;10.728;2022-10-18T02:29:21;24.60;;;12.97;;
14048;SDS011;7099;53.922;10.728;2022-10-18T02:38:25;29.83;;;13.40;;
14048;SDS011;7099;53.922;10.728;2022-10-18T02:42:55;35.07;;;14.23;;
14048;SDS011;7099;53.922;10.728;2022-10-18T02:47:21;36.53;;;15.47;;
14048;SDS011;7099;53.922;10.728;2022-10-18T02:51:46;23.43;;;13.43;;
14048;SDS011;7099;53.922;10.728;2022-10-18T02:56:12;26.33;;;15.20;;
14048;SDS011;7099;53.922;10.728;2022-10-18T03:00:37;33.93;;;15.63;;
14048;SDS011;7099;53.922;10.728;2022-10-18T03:05:02;31.13;;;15.03;;
14048;SDS011;7099;53.922;10.728;2022-10-18T03:09:28;41.13;;;15.67;;
14048;SDS011;7099;53.922;10.728;2022-10-18T03:13:53;27.23;;;14.70;;
14048;SDS011;7099;53.922;10.728;2022-10-18T03:18:18;31.70;;;14.93;;
14048;SDS011;7099;53.922;10.728;2022-10-18T03:22:43;29.80;;;15.03;;
14048;SDS011;7099;53.922;10.728;2022-10-18T03:27:09;37.30;;;15.30;;
14048;SDS011;7099;53.922;10.728;2022-10-18T03:31:34;36.87;;;17.40;;
14048;SDS011;7099;53.922;10.728;2022-10-18T03:36:00;30.50;;;14.80;;
14048;SDS011;7099;53.922;10.728;2022-10-18T03:40:25;29.97;;;14.67;;
14048;SDS011;7099;53.922;10.728;2022-10-18T03:44:50;39.73;;;15.90;;
14048;SDS011;7099;53.922;10.728;2022-10-18T03:49:16;39.90;;;16.80;;
14048;SDS011;7099;53.922;10.728;2022-10-18T03:53:41;43.37;;;17.43;;
14048;SDS011;7099;53.922;10.728;2022-10-18T03:58:06;36.97;;;16.37;;
14048;SDS011;7099;53.922;10.728;2022-10-18T04:02:31;30.20;;;13.47;;
14048;SDS011;7099;53.922;10.728;2022-10-18T04:06:57;26.77;;;13.43;;
14048;SDS011;7099;53.922;10.728;2022-10-18T04:11:22;30.27;;;14.60;;
14048;SDS011;7099;53.922;10.728;2022-10-18T04:15:47;33.70;;;15.27;;
14048;SDS011;7099;53.922;10.728;2022-10-18T04:20:12;24.33;;;12.43;;
14048;SDS011;7099;53.922;10.728;2022-10-18T04:24:38;30.23;;;13.90;;
14048;SDS011;7099;53.922;10.728;2022-10-18T04:29:03;26.73;;;12.80;;
14048;SDS011;7099;53.922;10.728;2022-10-18T04:33:29;37.73;;;15.03;;
14048;SDS011;7099;53.922;10.728;2022-10-18T04:37:54;27.27;;;15.50;;
14048;SDS011;7099;53.922;10.728;2022-10-18T04:42:20;33.87;;;16.90;;
14048;SDS011;7099;53.922;10.728;2022-10-18T04:46:45;33.80;;;16.00;;
14048;SDS011;7099;53.922;10.728;2022-10-18T04:51:10;39.37;;;16.90;;
14048;SDS011;7099;53.922;10.728;2022-10-18T04:55:36;34.57;;;15.60;;
14048;SDS011;7099;53.922;10.728;2022-10-18T05:00:01;35.20;;;16.60;;
14048;SDS011;7099;53.922;10.728;2022-10-18T05:04:27;53.47;;;18.23;;
14048;SDS011;7099;53.922;10.728;2022-10-18T05:08:52;41.10;;;16.50;;
14048;SDS011;7099;53.922;10.728;2022-10-18T05:13:18;64.75;;;25.50;;
14048;SDS011;7099;53.922;10.728;2022-10-18T05:17:43;51.53;;;19.40;;
14048;SDS011;7099;53.922;10.728;2022-10-18T05:22:08;46.43;;;16.97;;
14048;SDS011;7099;53.922;10.728;2022-10-18T05:26:34;43.57;;;17.97;;
14048;SDS011;7099;53.922;10.728;2022-10-18T05:31:03;46.80;;;21.37;;
14048;SDS011;7099;53.922;10.728;2022-10-18T05:35:29;31.53;;;15.30;;
14048;SDS011;7099;53.922;10.728;2022-10-18T05:39:55;33.20;;;15.80;;
14048;SDS011;7099;53.922;10.728;2022-10-18T05:44:20;34.63;;;16.50;;
14048;SDS011;7099;53.922;10.728;2022-10-18T05:48:49;32.33;;;16.03;;
14048;SDS011;7099;53.922;10.728;2022-10-18T05:53:15;42.13;;;15.20;;
14048;SDS011;7099;53.922;10.728;2022-10-18T05:58:00;30.27;;;14.20;;
14048;SDS011;7099;53.922;10.728;2022-10-18T06:02:26;36.53;;;15.10;;
14048;SDS011;7099;53.922;10.728;2022-10-18T06:06:51;46.93;;;16.97;;
14048;SDS011;7099;53.922;10.728;2022-10-18T06:11:19;46.53;;;18.27;;
14048;SDS011;7099;53.922;10.728;2022-10-18T06:15:44;41.53;;;17.77;;
14048;SDS011;7099;53.922;10.728;2022-10-18T06:20:09;46.80;;;18.93;;
14048;SDS011;7099;53.922;10.728;2022-10-18T06:24:35;48.50;;;19.40;;
14048;SDS011;7099;53.922;10.728;2022-10-18T06:29:00;51.73;;;18.70;;
14048;SDS011;7099;53.922;10.728;2022-10-18T06:33:25;39.60;;;18.77;;
14048;SDS011;7099;53.922;10.728;2022-10-18T06:37:50;47.57;;;17.13;;
14048;SDS011;7099;53.922;10.728;2022-10-18T06:42:16;38.70;;;15.80;;
14048;SDS011;7099;53.922;10.728;2022-10-18T06:46:46;35.30;;;17.00;;
14048;SDS011;7099;53.922;10.728;2022-10-18T06:51:13;36.97;;;15.60;;
14048;SDS011;7099;53.922;10.728;2022-10-18T06:55:38;47.93;;;15.30;;
14048;SDS011;7099;53.922;10.728;2022-10-18T07:00:04;38.57;;;15.40;;
14048;SDS011;7099;53.922;10.728;2022-10-18T07:04:29;39.33;;;15.80;;
14048;SDS011;7099;53.922;10.728;2022-10-18T07:08:55;33.70;;;14.97;;
14048;SDS011;7099;53.922;10.728;2022-10-18T07:13:21;33.43;;;15.10;;
14048;SDS011;7099;53.922;10.728;2022-10-18T07:18:01;34.97;;;15.07;;
14048;SDS011;7099;53.922;10.728;2022-10-18T07:22:27;40.80;;;15.53;;
14048;SDS011;7099;53.922;10.728;2022-10-18T07:26:54;38.67;;;15.43;;
14048;SDS011;7099;53.922;10.728;2022-10-18T07:31:19;35.20;;;15.90;;
14048;SDS011;7099;53.922;10.728;2022-10-18T07:35:46;38.33;;;16.67;;
14048;SDS011;7099;53.922;10.728;2022-10-18T07:40:11;39.07;;;13.93;;
14048;SDS011;7099;53.922;10.728;2022-10-18T07:44:37;34.67;;;15.13;;
14048;SDS011;7099;53.922;10.728;2022-10-18T07:49:03;36.53;;;14.77;;
14048;SDS011;7099;53.922;10.728;2022-10-18T07:53:28;28.13;;;13.43;;
14048;SDS011;7099;53.922;10.728;2022-10-18T07:57:54;29.67;;;13.73;;
14048;SDS011;7099;53.922;10.728;2022-10-18T08:02:19;31.00;;;12.60;;
14048;SDS011;7099;53.922;10.728;2022-10-18T08:06:45;36.07;;;13.77;;
14048;SDS011;7099;53.922;10.728;2022-10-18T08:11:15;37.00;;;13.00;;
14048;SDS011;7099;53.922;10.728;2022-10-18T08:15:43;27.47;;;13.40;;
14048;SDS011;7099;53.922;10.728;2022-10-18T08:20:08;26.00;;;12.97;;
14048;SDS011;7099;53.922;10.728;2022-10-18T08:24:54;30.70;;;12.70;;
14048;SDS011;7099;53.922;10.728;2022-10-18T08:29:19;22.87;;;12.00;;
14048;SDS011;7099;53.922;10.728;2022-10-18T08:33:48;25.53;;;13.17;;
14048;SDS011;7099;53.922;10.728;2022-10-18T08:38:13;26.17;;;12.03;;
14048;SDS011;7099;53.922;10.728;2022-10-18T08:47:32;22.97;;;11.87;;
14048;SDS011;7099;53.922;10.728;2022-10-18T08:52:01;25.90;;;13.30;;
14048;SDS011;7099;53.922;10.728;2022-10-18T08:56:28;23.00;;;11.83;;
14048;SDS011;7099;53.922;10.728;2022-10-18T09:10:21;25.03;;;11.10;;
14048;SDS011;7099;53.922;10.728;2022-10-18T09:15:54;26.40;;;11.20;;
14048;SDS011;7099;53.922;10.728;2022-10-18T09:25:30;20.37;;;11.17;;
14048;SDS011;7099;53.922;10.728;2022-10-18T09:35:17;22.80;;;10.40;;
14048;SDS011;7099;53.922;10.728;2022-10-18T09:39:48;20.50;;;10.43;;
14048;SDS011;7099;53.922;10.728;2022-10-18T09:44:29;23.37;;;10.40;;
14048;SDS011;7099;53.922;10.728;2022-10-18T09:58:31;29.80;;;11.17;;
14048;SDS011;7099;53.922;10.728;2022-10-18T10:03:11;21.20;;;10.03;;
14048;SDS011;7099;53.922;10.728;2022-10-18T10:07:45;21.83;;;9.77;;
14048;SDS011;7099;53.922;10.728;2022-10-18T10:17:05;15.93;;;9.33;;
14048;SDS011;7099;53.922;10.728;2022-10-18T10:21:48;19.80;;;9.37;;
14048;SDS011;7099;53.922;10.728;2022-10-18T10:26:31;12.07;;;7.43;;
14048;SDS011;7099;53.922;10.728;2022-10-18T10:31:17;20.27;;;8.57;;
14048;SDS011;7099;53.922;10.728;2022-10-18T10:35:52;20.67;;;7.77;;
14048;SDS011;7099;53.922;10.728;2022-10-18T10:44:52;13.60;;;6.03;;
14048;SDS011;7099;53.922;10.728;2022-10-18T10:49:19;17.37;;;6.90;;
14048;SDS011;7099;53.922;10.728;2022-10-18T10:54:18;18.33;;;7.13;;
14048;SDS011;7099;53.922;10.728;2022-10-18T10:58:46;14.73;;;6.20;;
14048;SDS011;7099;53.922;10.728;2022-10-18T11:03:13;18.73;;;5.43;;
14048;SDS011;7099;53.922;10.728;2022-10-18T11:07:54;20.93;;;6.60;;
14048;SDS011;7099;53.922;10.728;2022-10-18T11:12:27;14.50;;;5.23;;
14048;SDS011;7099;53.922;10.728;2022-10-18T11:17:06;14.70;;;6.00;;
14048;SDS011;7099;53.922;10.728;2022-10-18T11:21:44;8.40;;;3.20;;
14048;SDS011;7099;53.922;10.728;2022-10-18T11:30:37;9.30;;;3.00;;
14048;SDS011;7099;53.922;10.728;2022-10-18T11:45:04;5.83;;;2.57;;
14048;SDS011;7099;53.922;10.728;2022-10-18T12:04:26;9.37;;;3.10;;
14048;SDS011;7099;53.922;10.728;2022-10-18T12:09:00;16.30;;;3.40;;
14048;SDS011;7099;53.922;10.728;2022-10-18T12:13:35;9.93;;;3.00;;
14048;SDS011;7099;53.922;10.728;2022-10-18T12:18:13;9.50;;;2.70;;
14048;SDS011;7099;53.922;10.728;2022-10-18T12:22:50;12.30;;;3.00;;
14048;SDS011;7099;53.922;10.728;2022-10-18T12:27:38;18.90;;;3.83;;
14048;SDS011;7099;53.922;10.728;2022-10-18T12:32:11;10.20;;;2.90;;
14048;SDS011;7099;53.922;10.728;2022-10-18T12:36:50;11.10;;;2.57;;
14048;SDS011;7099;53.922;10.728;2022-10-18T12:41:36;13.90;;;2.67;;
14048;SDS011;7099;53.922;10.728;2022-10-18T12:46:02;10.93;;;2.13;;
14048;SDS011;7099;53.922;10.728;2022-10-18T12:50:37;6.37;;;1.90;;
14048;SDS011;7099;53.922;10.728;2022-10-18T12:59:42;10.83;;;2.40;;
14048;SDS011;7099;53.922;10.728;2022-10-18T13:04:31;14.50;;;2.30;;
14048;SDS011;7099;53.922;10.728;2022-10-18T13:09:14;14.40;;;2.20;;
14048;SDS011;7099;53.922;10.728;2022-10-18T13:13:45;14.87;;;2.57;;
14048;SDS011;7099;53.922;10.728;2022-10-18T13:23:01;15.20;;;2.50;;
14048;SDS011;7099;53.922;10.728;2022-10-18T13:28:45;10.57;;;2.43;;
14048;SDS011;7099;53.922;10.728;2022-10-18T13:33:38;12.77;;;2.53;;
14048;SDS011;7099;53.922;10.728;2022-10-18T13:38:04;13.70;;;1.97;;
14048;SDS011;7099;53.922;10.728;2022-10-18T13:43:37;10.50;;;2.10;;
14048;SDS011;7099;53.922;10.728;2022-10-18T13:53:00;13.50;;;3.67;;
14048;SDS011;7099;53.922;10.728;2022-10-18T13:58:00;6.90;;;1.90;;
14048;SDS011;7099;53.922;10.728;2022-10-18T14:08:12;12.27;;;2.23;;
14048;SDS011;7099;53.922;10.728;2022-10-18T14:12:45;6.40;;;2.03;;
14048;SDS011;7099;53.922;10.728;2022-10-18T14:17:26;10.93;;;2.60;;
14048;SDS011;7099;53.922;10.728;2022-10-18T14:22:19;10.10;;;2.10;;
14048;SDS011;7099;53.922;10.728;2022-10-18T14:27:11;11.70;;;3.57;;
14048;SDS011;7099;53.922;10.728;2022-10-18T14:31:56;22.43;;;5.20;;
14048;SDS011;7099;53.922;10.728;2022-10-18T14:36:22;15.30;;;2.50;;
14048;SDS011;7099;53.922;10.728;2022-10-18T14:41:04;6.00;;;1.87;;
14048;SDS011;7099;53.922;10.728;2022-10-18T14:45:40;7.37;;;1.60;;
14048;SDS011;7099;53.922;10.728;2022-10-18T14:50:17;10.73;;;1.77;;
14048;SDS011;7099;53.922;10.728;2022-10-18T14:54:54;7.17;;;1.73;;
14048;SDS011;7099;53.922;10.728;2022-10-18T14:59:24;16.37;;;2.10;;
14048;SDS011;7099;53.922;10.728;2022-10-18T15:03:56;13.67;;;1.90;;
14048;SDS011;7099;53.922;10.728;2022-10-18T15:08:24;8.70;;;1.90;;
14048;SDS011;7099;53.922;10.728;2022-10-18T15:12:58;5.30;;;1.57;;
14048;SDS011;7099;53.922;10.728;2022-10-18T15:17:34;8.07;;;2.17;;
14048;SDS011;7099;53.922;10.728;2022-10-18T15:22:04;6.20;;;1.40;;
14048;SDS011;7099;53.922;10.728;2022-10-18T15:26:52;7.73;;;1.80;;
14048;SDS011;7099;53.922;10.728;2022-10-18T15:31:26;12.13;;;1.53;;
14048;SDS011;7099;53.922;10.728;2022-10-18T15:35:54;12.10;;;2.03;;
14048;SDS011;7099;53.922;10.728;2022-10-18T15:44:49;11.77;;;2.10;;
14048;SDS011;7099;53.922;10.728;2022-10-18T15:54:07;11.13;;;1.97;;
14048;SDS011;7099;53.922;10.728;2022-10-18T15:58:45;8.60;;;1.53;;
14048;SDS011;7099;53.922;10.728;2022-10-18T16:03:12;10.00;;;2.37;;
14048;SDS011;7099;53.922;10.728;2022-10-18T16:07:39;7.20;;;1.53;;
14048;SDS011;7099;53.922;10.728;2022-10-18T16:12:04;12.57;;;2.13;;
14048;SDS011;7099;53.922;10.728;2022-10-18T16:16:29;8.33;;;1.60;;
14048;SDS011;7099;53.922;10.728;2022-10-18T16:20:55;8.23;;;1.87;;
14048;SDS011;7099;53.922;10.728;2022-10-18T16:25:20;11.13;;;2.10;;
14048;SDS011;7099;53.922;10.728;2022-10-18T16:29:45;10.17;;;2.00;;
14048;SDS011;7099;53.922;10.728;2022-10-18T16:34:11;12.83;;;2.03;;
14048;SDS011;7099;53.922;10.728;2022-10-18T16:38:38;12.17;;;2.43;;
14048;SDS011;7099;53.922;10.728;2022-10-18T16:43:03;7.80;;;1.90;;
14048;SDS011;7099;53.922;10.728;2022-10-18T16:47:28;9.60;;;1.90;;
14048;SDS011;7099;53.922;10.728;2022-10-18T16:51:54;10.03;;;2.47;;
14048;SDS011;7099;53.922;10.728;2022-10-18T16:56:26;7.17;;;2.10;;
14048;SDS011;7099;53.922;10.728;2022-10-18T17:00:54;5.73;;;1.50;;
14048;SDS011;7099;53.922;10.728;2022-10-18T17:05:21;8.93;;;2.00;;
14048;SDS011;7099;53.922;10.728;2022-10-18T17:09:47;14.00;;;1.70;;
14048;SDS011;7099;53.922;10.728;2022-10-18T17:14:12;6.13;;;1.60;;
14048;SDS011;7099;53.922;10.728;2022-10-18T17:18:37;8.30;;;1.57;;
14048;SDS011;7099;53.922;10.728;2022-10-18T17:23:02;9.03;;;1.80;;
14048;SDS011;7099;53.922;10.728;2022-10-18T17:27:27;5.83;;;2.30;;
14048;SDS011;7099;53.922;10.728;2022-10-18T17:31:53;7.57;;;1.83;;
14048;SDS011;7099;53.922;10.728;2022-10-18T17:36:18;5.73;;;1.60;;
14048;SDS011;7099;53.922;10.728;2022-10-18T17:40:44;16.20;;;2.13;;
14048;SDS011;7099;53.922;10.728;2022-10-18T17:45:09;8.57;;;1.97;;
14048;SDS011;7099;53.922;10.728;2022-10-18T17:49:35;11.23;;;2.00;;
14048;SDS011;7099;53.922;10.728;2022-10-18T17:54:01;10.40;;;1.90;;
14048;SDS011;7099;53.922;10.728;2022-10-18T17:58:27;11.43;;;4.70;;
14048;SDS011;7099;53.922;10.728;2022-10-18T18:02:56;8.00;;;2.80;;
14048;SDS011;7099;53.922;10.728;2022-10-18T18:07:22;4.53;;;1.47;;
14048;SDS011;7099;53.922;10.728;2022-10-18T18:11:47;5.03;;;1.70;;
14048;SDS011;7099;53.922;10.728;2022-10-18T18:16:18;6.03;;;1.53;;
14048;SDS011;7099;53.922;10.728;2022-10-18T18:20:48;5.00;;;1.30;;
14048;SDS011;7099;53.922;10.728;2022-10-18T18:25:18;6.37;;;1.47;;
14048;SDS011;7099;53.922;10.728;2022-10-18T18:29:44;5.23;;;1.53;;
14048;SDS011;7099;53.922;10.728;2022-10-18T18:34:09;4.07;;;1.40;;
14048;SDS011;7099;53.922;10.728;2022-10-18T18:38:35;6.73;;;1.30;;
14048;SDS011;7099;53.922;10.728;2022-10-18T18:43:02;5.63;;;1.80;;
14048;SDS011;7099;53.922;10.728;2022-10-18T18:47:45;4.23;;;1.60;;
14048;SDS011;7099;53.922;10.728;2022-10-18T18:52:11;11.23;;;1.87;;
14048;SDS011;7099;53.922;10.728;2022-10-18T18:56:36;8.73;;;1.73;;
14048;SDS011;7099;53.922;10.728;2022-10-18T19:01:06;10.00;;;2.37;;
14048;SDS011;7099;53.922;10.728;2022-10-18T19:05:36;5.17;;;1.90;;
14048;SDS011;7099;53.922;10.728;2022-10-18T19:10:01;6.00;;;1.80;;
14048;SDS011;7099;53.922;10.728;2022-10-18T19:14:26;8.20;;;1.57;;
14048;SDS011;7099;53.922;10.728;2022-10-18T19:18:53;8.70;;;1.80;;
14048;SDS011;7099;53.922;10.728;2022-10-18T19:23:25;12.93;;;1.80;;
14048;SDS011;7099;53.922;10.728;2022-10-18T19:27:51;12.90;;;1.70;;
14048;SDS011;7099;53.922;10.728;2022-10-18T19:32:16;12.23;;;2.00;;
14048;SDS011;7099;53.922;10.728;2022-10-18T19:36:43;5.20;;;1.60;;
14048;SDS011;7099;53.922;10.728;2022-10-18T19:41:10;14.60;;;2.07;;
14048;SDS011;7099;53.922;10.728;2022-10-18T19:45:35;28.33;;;8.70;;
14048;SDS011;7099;53.922;10.728;2022-10-18T19:50:00;22.00;;;6.33;;
14048;SDS011;7099;53.922;10.728;2022-10-18T19:54:25;14.53;;;2.70;;
14048;SDS011;7099;53.922;10.728;2022-10-18T19:58:51;8.17;;;1.90;;
14048;SDS011;7099;53.922;10.728;2022-10-18T20:03:19;12.07;;;2.33;;
14048;SDS011;7099;53.922;10.728;2022-10-18T20:07:45;5.70;;;1.53;;
14048;SDS011;7099;53.922;10.728;2022-10-18T20:12:10;10.40;;;2.07;;
14048;SDS011;7099;53.922;10.728;2022-10-18T20:16:36;8.05;;;1.50;;
14048;SDS011;7099;53.922;10.728;2022-10-18T20:21:05;6.80;;;1.50;;
14048;SDS011;7099;53.922;10.728;2022-10-18T20:25:31;10.03;;;1.87;;
14048;SDS011;7099;53.922;10.728;2022-10-18T20:43:14;12.83;;;1.40;;
14048;SDS011;7099;53.922;10.728;2022-10-18T20:47:39;6.27;;;1.50;;
14048;SDS011;7099;53.922;10.728;2022-10-18T20:52:05;14.43;;;1.80;;
14048;SDS011;7099;53.922;10.728;2022-10-18T21:18:59;14.33;;;1.50;;
14048;SDS011;7099;53.922;10.728;2022-10-18T21:23:34;7.47;;;1.53;;
14048;SDS011;7099;53.922;10.728;2022-10-18T21:36:50;5.17;;;1.80;;
14048;SDS011;7099;53.922;10.728;2022-10-18T21:41:16;16.03;;;1.73;;
14048;SDS011;7099;53.922;10.728;2022-10-18T22:03:25;9.53;;;1.17;;
14048;SDS011;7099;53.922;10.728;2022-10-18T22:07:50;6.50;;;1.90;;
14048;SDS011;7099;53.922;10.728;2022-10-18T22:12:15;10.77;;;1.23;;
14048;SDS011;7099;53.922;10.728;2022-10-18T22:16:41;6.90;;;1.60;;
14048;SDS011;7099;53.922;10.728;2022-10-18T22:21:06;7.20;;;1.33;;
14048;SDS011;7099;53.922;10.728;2022-10-18T22:25:35;14.73;;;3.30;;
14048;SDS011;7099;53.922;10.728;2022-10-18T22:30:00;5.40;;;1.07;;
14048;SDS011;7099;53.922;10.728;2022-10-18T22:34:26;6.23;;;1.47;;
14048;SDS011;7099;53.922;10.728;2022-10-18T22:38:51;7.93;;;1.30;;
14048;SDS011;7099;53.922;10.728;2022-10-18T22:43:16;11.83;;;1.30;;
14048;SDS011;7099;53.922;10.728;2022-10-18T22:47:41;6.30;;;1.30;;
14048;SDS011;7099;53.922;10.728;2022-10-18T22:52:06;3.57;;;1.17;;
14048;SDS011;7099;53.922;10.728;2022-10-18T22:56:32;9.47;;;1.17;;
14048;SDS011;7099;53.922;10.728;2022-10-18T23:01:01;4.23;;;1.10;;
14048;SDS011;7099;53.922;10.728;2022-10-18T23:05:29;8.07;;;1.33;;
14048;SDS011;7099;53.922;10.728;2022-10-18T23:09:54;7.50;;;1.10;;
14048;SDS011;7099;53.922;10.728;2022-10-18T23:14:19;4.37;;;1.20;;
14048;SDS011;7099;53.922;10.728;2022-10-18T23:18:52;4.73;;;1.13;;
14048;SDS011;7099;53.922;10.728;2022-10-18T23:23:19;5.80;;;1.43;;
14048;SDS011;7099;53.922;10.728;2022-10-18T23:27:44;5.93;;;1.10;;
14048;SDS011;7099;53.922;10.728;2022-10-18T23:32:10;4.20;;;0.87;;
14048;SDS011;7099;53.922;10.728;2022-10-18T23:36:35;3.53;;;0.93;;
14048;SDS011;7099;53.922;10.728;2022-10-18T23:41:00;6.20;;;1.37;;
14048;SDS011;7099;53.922;10.728;2022-10-18T23:45:26;4.33;;;1.10;;
14048;SDS011;7099;53.922;10.728;2022-10-18T23:49:51;8.53;;;1.67;;
14048;SDS011;7099;53.922;10.728;2022-10-18T23:54:18;10.00;;;1.37;;
14048;SDS011;7099;53.922;10.728;2022-10-18T23:58:44;3.53;;;1.17;;
